createdAt,value
2017-10-26T00:00:32.314Z,89.80
2017-10-26T00:03:01.934Z,89.90
2017-10-26T00:05:31.152Z,89.90
2017-10-26T00:08:00.016Z,90.00
2017-10-26T00:10:29.658Z,90.10
2017-10-26T00:12:58.510Z,90.10
2017-10-26T00:15:28.440Z,90.10
2017-10-26T00:17:58.062Z,90.10
2017-10-26T00:20:26.956Z,90.10
2017-10-26T00:22:55.853Z,90.10
2017-10-26T00:25:24.707Z,90.20
2017-10-26T00:27:53.568Z,90.10
2017-10-26T00:30:22.433Z,90.20
2017-10-26T00:32:51.288Z,90.20
2017-10-26T00:35:20.908Z,90.10
2017-10-26T00:37:50.518Z,90.10
2017-10-26T00:40:20.155Z,90.10
2017-10-26T00:42:49.002Z,90.10
2017-10-26T00:45:18.623Z,90.30
2017-10-26T00:47:48.245Z,90.30
2017-10-26T00:50:17.104Z,90.30
2017-10-26T00:52:45.963Z,90.30
2017-10-26T00:55:16.024Z,90.40
2017-10-26T00:57:45.286Z,90.50
2017-10-26T01:00:13.455Z,90.50
2017-10-26T01:02:41.993Z,90.60
2017-10-26T01:05:11.631Z,90.60
2017-10-26T01:07:41.266Z,90.60
2017-10-26T01:10:10.122Z,90.60
2017-10-26T01:12:38.630Z,90.60
2017-10-26T01:15:07.910Z,90.70
2017-10-26T01:17:36.783Z,90.70
2017-10-26T01:20:05.639Z,90.80
2017-10-26T01:22:34.508Z,90.70
2017-10-26T01:25:03.648Z,90.80
2017-10-26T01:27:32.934Z,90.70
2017-10-26T01:30:01.099Z,90.70
2017-10-26T01:32:29.265Z,90.80
2017-10-26T01:34:57.436Z,90.90
2017-10-26T01:37:25.944Z,90.90
2017-10-26T01:39:55.114Z,90.90
2017-10-26T01:42:23.615Z,90.90
2017-10-26T01:44:52.476Z,90.90
2017-10-26T01:47:20.987Z,90.90
2017-10-26T01:49:49.836Z,90.90
2017-10-26T01:52:18.342Z,90.90
2017-10-26T01:54:47.322Z,90.90
2017-10-26T01:57:15.335Z,90.90
2017-10-26T01:59:43.507Z,90.90
2017-10-26T02:02:12.014Z,90.90
2017-10-26T02:04:41.286Z,90.90
2017-10-26T02:07:09.809Z,90.90
2017-10-26T02:09:37.978Z,91.00
2017-10-26T02:12:06.515Z,90.90
2017-10-26T02:14:35.011Z,91.20
2017-10-26T02:17:03.519Z,91.20
2017-10-26T02:19:32.792Z,91.10
2017-10-26T02:22:01.302Z,91.10
2017-10-26T02:24:30.243Z,91.10
2017-10-26T02:26:59.097Z,91.10
2017-10-26T02:29:39.112Z,91.00
2017-10-26T02:32:08.810Z,90.90
2017-10-26T02:34:37.684Z,90.90
2017-10-26T02:37:06.551Z,90.90
2017-10-26T02:39:45.223Z,90.90
2017-10-26T02:42:14.076Z,91.10
2017-10-26T02:44:42.932Z,91.00
2017-10-26T02:47:16.294Z,91.20
2017-10-26T02:49:45.616Z,91.20
2017-10-26T02:52:15.063Z,91.30
2017-10-26T02:54:43.927Z,91.50
2017-10-26T02:57:19.771Z,91.70
2017-10-26T02:59:48.826Z,91.60
2017-10-26T03:02:19.674Z,91.70
2017-10-26T03:04:47.887Z,91.60
2017-10-26T03:07:17.523Z,91.60
2017-10-26T03:09:46.387Z,91.60
2017-10-26T03:12:15.242Z,91.40
2017-10-26T03:14:44.092Z,91.40
2017-10-26T03:17:12.934Z,91.50
2017-10-26T03:19:41.810Z,91.50
2017-10-26T03:22:10.679Z,91.50
2017-10-26T03:24:39.538Z,91.50
2017-10-26T03:27:09.148Z,91.60
2017-10-26T03:29:38.782Z,91.50
2017-10-26T03:32:08.487Z,91.50
2017-10-26T03:34:37.350Z,91.50
2017-10-26T03:37:07.916Z,91.60
2017-10-26T03:39:36.785Z,91.60
2017-10-26T03:42:06.409Z,91.70
2017-10-26T03:44:35.258Z,91.70
2017-10-26T03:47:04.136Z,91.70
2017-10-26T03:49:32.982Z,91.60
2017-10-26T03:52:01.839Z,91.60
2017-10-26T03:54:30.702Z,91.60
2017-10-26T03:56:59.586Z,91.50
2017-10-26T03:59:28.644Z,91.50
2017-10-26T04:01:58.387Z,91.50
2017-10-26T04:04:28.019Z,91.50
2017-10-26T04:06:58.190Z,91.40
2017-10-26T04:09:27.846Z,91.40
2017-10-26T04:11:56.537Z,91.40
2017-10-26T04:14:25.396Z,91.40
2017-10-26T04:16:54.283Z,91.40
2017-10-26T04:19:23.165Z,91.40
2017-10-26T04:21:52.027Z,91.40
2017-10-26T04:24:21.459Z,91.40
2017-10-26T04:26:51.151Z,91.40
2017-10-26T04:29:20.782Z,91.40
2017-10-26T04:31:49.151Z,91.30
2017-10-26T04:34:18.005Z,91.40
2017-10-26T04:36:46.877Z,91.40
2017-10-26T04:39:15.736Z,91.50
2017-10-26T04:41:44.622Z,91.50
2017-10-26T04:44:13.774Z,91.60
2017-10-26T04:46:42.629Z,91.60
2017-10-26T04:49:11.497Z,91.60
2017-10-26T04:51:41.425Z,91.60
2017-10-26T04:54:10.351Z,91.60
2017-10-26T04:56:38.914Z,91.70
2017-10-26T04:59:07.786Z,91.60
2017-10-26T05:01:36.669Z,91.60
2017-10-26T05:04:05.565Z,91.70
2017-10-26T05:06:34.810Z,91.70
2017-10-26T05:09:03.790Z,91.70
2017-10-26T05:11:32.682Z,91.70
2017-10-26T05:14:02.553Z,91.60
2017-10-26T05:16:32.219Z,91.80
2017-10-26T05:19:01.904Z,91.80
2017-10-26T05:21:31.051Z,91.80
2017-10-26T05:23:59.912Z,91.70
2017-10-26T05:26:28.807Z,91.80
2017-10-26T05:28:57.670Z,91.60
2017-10-26T05:31:26.523Z,91.70
2017-10-26T05:33:55.854Z,91.70
2017-10-26T05:36:24.043Z,91.70
2017-10-26T05:38:53.556Z,91.60
2017-10-26T05:41:23.254Z,91.70
2017-10-26T05:43:53.026Z,91.70
2017-10-26T05:46:21.912Z,91.80
2017-10-26T05:48:51.554Z,91.80
2017-10-26T05:51:20.461Z,91.90
2017-10-26T05:53:49.306Z,91.90
2017-10-26T05:56:18.167Z,91.90
2017-10-26T05:58:47.079Z,92.10
2017-10-26T06:01:15.632Z,92.00
2017-10-26T06:03:44.525Z,92.00
2017-10-26T06:06:13.384Z,92.00
2017-10-26T06:08:42.843Z,92.00
2017-10-26T06:11:12.449Z,91.90
2017-10-26T06:13:41.341Z,91.90
2017-10-26T06:16:10.198Z,92.00
2017-10-26T06:18:39.077Z,92.00
2017-10-26T06:21:07.954Z,91.90
2017-10-26T06:23:37.595Z,91.80
2017-10-26T06:26:06.463Z,91.80
2017-10-26T06:28:35.319Z,91.80
2017-10-26T06:31:04.195Z,91.80
2017-10-26T06:33:33.061Z,91.70
2017-10-26T06:36:01.949Z,91.70
2017-10-26T06:38:30.831Z,91.60
2017-10-26T06:41:00.555Z,91.60
2017-10-26T06:43:29.262Z,91.60
2017-10-26T06:45:58.141Z,91.60
2017-10-26T06:48:27.825Z,91.60
2017-10-26T06:50:57.204Z,91.70
2017-10-26T06:53:26.907Z,91.70
2017-10-26T06:55:57.362Z,91.60
2017-10-26T06:58:26.238Z,91.60
2017-10-26T07:00:56.579Z,91.60
2017-10-26T07:03:25.676Z,91.60
2017-10-26T07:05:55.092Z,91.40
2017-10-26T07:08:23.948Z,91.30
2017-10-26T07:10:53.610Z,91.20
2017-10-26T07:13:22.458Z,91.20
2017-10-26T07:15:52.117Z,90.90
2017-10-26T07:18:21.930Z,90.90
2017-10-26T07:20:51.361Z,90.90
2017-10-26T07:23:20.242Z,90.80
2017-10-26T07:25:49.122Z,90.80
2017-10-26T07:28:18.013Z,90.80
2017-10-26T07:30:46.900Z,90.70
2017-10-26T07:33:16.491Z,90.70
2017-10-26T07:35:45.363Z,90.60
2017-10-26T07:38:16.787Z,90.60
2017-10-26T07:40:46.430Z,90.60
2017-10-26T07:43:16.541Z,90.60
2017-10-26T07:45:45.450Z,90.50
2017-10-26T07:48:14.356Z,90.50
2017-10-26T07:50:43.231Z,90.50
2017-10-26T07:53:12.120Z,90.50
2017-10-26T07:55:41.037Z,90.30
2017-10-26T07:58:10.588Z,90.20
2017-10-26T08:00:39.452Z,90.00
2017-10-26T08:03:08.360Z,89.80
2017-10-26T08:05:37.404Z,89.20
2017-10-26T08:08:06.307Z,89.00
2017-10-26T08:10:35.216Z,88.50
2017-10-26T08:13:05.385Z,88.00
2017-10-26T08:15:34.282Z,87.00
2017-10-26T08:18:03.252Z,86.50
2017-10-26T08:20:31.461Z,86.40
2017-10-26T08:23:01.218Z,86.30
2017-10-26T08:25:30.081Z,86.20
2017-10-26T08:27:58.958Z,86.10
2017-10-26T08:30:27.824Z,86.10
2017-10-26T08:32:57.560Z,86.10
2017-10-26T08:35:26.427Z,86.10
2017-10-26T08:37:56.850Z,85.80
2017-10-26T08:40:25.798Z,85.70
2017-10-26T08:42:54.565Z,85.40
2017-10-26T08:45:23.466Z,85.20
2017-10-26T08:47:53.007Z,85.10
2017-10-26T08:50:21.898Z,85.00
2017-10-26T08:52:50.517Z,85.00
2017-10-26T08:55:19.067Z,84.60
2017-10-26T08:57:47.618Z,84.50
2017-10-26T09:00:16.481Z,84.40
2017-10-26T09:02:47.466Z,84.10
2017-10-26T09:05:16.047Z,84.10
2017-10-26T09:07:46.006Z,84.00
2017-10-26T09:10:15.674Z,84.10
2017-10-26T09:12:44.965Z,83.50
2017-10-26T09:15:14.313Z,83.50
2017-10-26T09:17:43.816Z,83.40
2017-10-26T09:20:14.835Z,83.50
2017-10-26T09:22:43.410Z,83.00
2017-10-26T09:25:12.172Z,82.80
2017-10-26T09:27:41.807Z,82.20
2017-10-26T09:30:10.350Z,81.80
2017-10-26T09:32:39.906Z,81.10
2017-10-26T09:35:09.086Z,81.10
2017-10-26T09:37:38.334Z,80.80
2017-10-26T09:40:06.568Z,80.40
2017-10-26T09:42:34.779Z,80.30
2017-10-26T09:45:03.708Z,80.00
2017-10-26T09:47:32.229Z,79.90
2017-10-26T09:50:01.140Z,79.90
2017-10-26T09:52:29.335Z,79.90
2017-10-26T09:54:58.328Z,79.40
2017-10-26T09:57:28.485Z,79.30
2017-10-26T09:59:57.631Z,79.00
2017-10-26T10:02:26.091Z,78.80
2017-10-26T10:04:54.321Z,78.30
2017-10-26T10:07:23.393Z,77.90
2017-10-26T10:09:52.865Z,77.60
2017-10-26T10:56:03.212Z,76.80
2017-10-26T10:58:32.533Z,72.40
2017-10-26T11:01:02.522Z,71.40
2017-10-26T11:03:31.932Z,71.50
2017-10-26T11:06:02.616Z,71.40
2017-10-26T11:08:31.978Z,70.80
2017-10-26T11:11:01.134Z,70.80
2017-10-26T11:13:31.468Z,70.50
2017-10-26T11:16:03.588Z,70.00
2017-10-26T11:18:33.030Z,70.00
2017-10-26T11:21:03.410Z,70.00
2017-10-26T11:23:31.951Z,70.00
2017-10-26T11:26:03.188Z,70.00
2017-10-26T11:28:33.362Z,70.30
2017-10-26T11:31:03.484Z,70.30
2017-10-26T11:33:34.132Z,71.10
2017-10-26T11:36:04.234Z,70.60
2017-10-26T11:38:32.813Z,70.30
2017-10-26T11:41:01.480Z,70.40
2017-10-26T11:43:30.787Z,70.40
2017-10-26T11:45:59.358Z,70.30
2017-10-26T11:48:27.938Z,71.20
2017-10-26T11:50:56.923Z,70.40
2017-10-26T11:53:27.272Z,69.90
2017-10-26T11:55:56.596Z,69.80
2017-10-26T11:58:26.494Z,69.70
2017-10-26T12:00:54.723Z,69.10
2017-10-26T12:03:24.055Z,68.30
2017-10-26T12:05:52.875Z,68.00
2017-10-26T12:08:22.656Z,67.90
2017-10-26T12:10:51.509Z,67.40
2017-10-26T12:13:20.383Z,67.40
2017-10-26T12:15:49.957Z,67.20
2017-10-26T12:18:18.078Z,66.80
2017-10-26T12:20:47.330Z,66.50
2017-10-26T12:23:15.364Z,66.40
2017-10-26T12:25:43.944Z,66.30
2017-10-26T12:28:12.268Z,66.20
2017-10-26T12:30:41.754Z,66.30
2017-10-26T12:33:10.583Z,65.90
2017-10-26T12:35:38.802Z,65.90
2017-10-26T12:38:07.355Z,65.90
2017-10-26T12:40:35.931Z,66.70
2017-10-26T12:43:04.177Z,65.90
2017-10-26T12:45:33.690Z,65.90
2017-10-26T12:48:02.372Z,66.00
2017-10-26T12:50:34.158Z,66.10
2017-10-26T12:53:02.752Z,66.20
2017-10-26T12:55:31.512Z,66.00
2017-10-26T12:57:59.717Z,66.10
2017-10-26T13:00:27.926Z,66.30
2017-10-26T13:02:56.995Z,66.20
2017-10-26T13:05:25.978Z,66.30
2017-10-26T13:07:54.197Z,66.30
2017-10-26T13:10:24.139Z,66.20
2017-10-26T13:12:53.225Z,66.10
2017-10-26T13:15:21.444Z,66.20
2017-10-26T13:17:50.031Z,66.30
2017-10-26T13:20:18.821Z,66.10
2017-10-26T13:22:48.013Z,66.00
2017-10-26T13:25:16.251Z,66.20
2017-10-26T13:27:45.979Z,66.10
2017-10-26T13:30:17.795Z,66.00
2017-10-26T13:32:46.764Z,66.30
2017-10-26T13:35:16.184Z,66.10
2017-10-26T13:37:45.064Z,66.20
2017-10-26T13:40:14.660Z,66.00
2017-10-26T13:42:43.507Z,65.90
2017-10-26T13:45:12.079Z,65.70
2017-10-26T13:47:41.694Z,65.10
2017-10-26T13:50:11.356Z,64.40
2017-10-26T13:52:41.263Z,64.40
2017-10-26T13:55:09.847Z,64.40
2017-10-26T13:57:38.780Z,64.30
2017-10-26T14:00:08.751Z,64.10
2017-10-26T14:02:37.314Z,64.10
2017-10-26T14:05:06.945Z,64.30
2017-10-26T14:07:37.317Z,64.50
2017-10-26T14:10:09.488Z,64.60
2017-10-26T14:12:39.178Z,64.70
2017-10-26T14:15:08.057Z,64.60
2017-10-26T14:17:36.940Z,64.70
2017-10-26T14:20:06.258Z,64.80
2017-10-26T14:22:35.130Z,64.50
2017-10-26T14:25:04.662Z,64.30
2017-10-26T14:27:33.594Z,64.10
2017-10-26T14:30:02.982Z,63.90
2017-10-26T14:32:32.641Z,63.80
2017-10-26T14:35:01.988Z,63.70
2017-10-26T14:37:33.035Z,63.70
2017-10-26T14:40:03.709Z,63.80
2017-10-26T14:42:32.563Z,63.60
2017-10-26T14:45:04.866Z,63.90
2017-10-26T14:47:33.719Z,63.90
2017-10-26T14:50:04.219Z,64.00
2017-10-26T14:52:33.286Z,64.20
2017-10-26T14:55:02.173Z,64.10
2017-10-26T14:57:32.619Z,64.40
2017-10-26T15:00:01.223Z,64.40
2017-10-26T15:02:30.885Z,64.50
2017-10-26T15:04:59.817Z,64.80
2017-10-26T15:07:28.758Z,64.90
2017-10-26T15:09:58.216Z,65.10
2017-10-26T15:12:27.104Z,65.00
2017-10-26T15:14:57.358Z,65.30
2017-10-26T15:17:26.238Z,65.50
2017-10-26T15:19:55.129Z,65.60
2017-10-26T15:22:24.553Z,65.80
2017-10-26T15:24:54.452Z,66.00
2017-10-26T15:27:24.763Z,66.20
2017-10-26T15:29:53.634Z,66.50
2017-10-26T15:32:22.520Z,66.80
2017-10-26T15:34:51.398Z,67.00
2017-10-26T15:37:21.982Z,67.50
2017-10-26T15:39:50.881Z,67.50
2017-10-26T15:42:22.015Z,67.80
2017-10-26T15:44:52.168Z,68.00
2017-10-26T15:47:21.063Z,68.20
2017-10-26T15:49:50.732Z,68.80
2017-10-26T15:52:19.606Z,68.80
2017-10-26T15:54:49.107Z,69.30
2017-10-26T15:57:17.959Z,69.30
2017-10-26T15:59:48.023Z,69.80
2017-10-26T16:02:16.908Z,69.80
2017-10-26T16:04:45.770Z,70.00
2017-10-26T16:07:14.658Z,70.30
2017-10-26T16:12:31.527Z,70.80
2017-10-26T16:15:01.115Z,71.00
2017-10-26T16:17:30.199Z,71.40
2017-10-26T16:20:00.693Z,71.70
2017-10-26T16:22:29.634Z,71.90
2017-10-26T16:24:58.498Z,72.00
2017-10-26T16:27:28.206Z,72.60
2017-10-26T16:29:57.818Z,72.80
2017-10-26T16:32:27.489Z,73.00
2017-10-26T16:34:57.039Z,73.00
2017-10-26T16:37:26.730Z,73.40
2017-10-26T16:39:56.375Z,73.70
2017-10-26T16:42:25.244Z,73.70
2017-10-26T16:44:54.576Z,74.00
2017-10-26T16:47:24.266Z,74.00
2017-10-26T16:49:53.959Z,74.30
2017-10-26T16:52:24.415Z,74.50
2017-10-26T16:54:54.896Z,74.50
2017-10-26T16:57:23.778Z,74.70
2017-10-26T16:59:52.644Z,74.70
2017-10-26T17:02:22.243Z,75.00
2017-10-26T17:04:51.096Z,75.00
2017-10-26T17:07:20.490Z,75.00
2017-10-26T17:09:50.252Z,75.10
2017-10-26T17:12:20.131Z,75.10
2017-10-26T17:14:50.736Z,75.30
2017-10-26T17:17:21.136Z,75.30
2017-10-26T17:19:49.977Z,75.50
2017-10-26T17:22:18.852Z,75.60
2017-10-26T17:24:47.790Z,75.80
2017-10-26T17:27:16.640Z,75.90
2017-10-26T17:29:45.687Z,75.80
2017-10-26T17:32:15.505Z,75.70
2017-10-26T17:34:44.365Z,75.80
2017-10-26T17:37:13.235Z,75.80
2017-10-26T17:39:42.106Z,75.90
2017-10-26T17:42:11.002Z,76.00
2017-10-26T17:44:40.773Z,75.90
2017-10-26T17:47:10.435Z,76.10
2017-10-26T17:49:39.290Z,76.00
2017-10-26T17:52:08.147Z,76.10
2017-10-26T17:54:37.609Z,76.20
2017-10-26T17:57:06.955Z,76.10
2017-10-26T17:59:36.420Z,76.00
2017-10-26T18:02:05.279Z,76.10
2017-10-26T18:04:34.218Z,76.10
2017-10-26T18:07:03.991Z,76.20
2017-10-26T18:09:32.874Z,76.30
2017-10-26T18:12:01.782Z,76.50
2017-10-26T18:14:30.642Z,76.60
2017-10-26T18:17:00.395Z,76.60
2017-10-26T18:19:29.307Z,76.60
2017-10-26T18:21:58.222Z,76.60
2017-10-26T18:24:28.539Z,76.40
2017-10-26T18:26:57.475Z,76.40
2017-10-26T18:29:26.108Z,76.30
2017-10-26T18:31:55.687Z,76.20
2017-10-26T18:34:24.625Z,76.20
2017-10-26T18:36:54.826Z,76.10
2017-10-26T18:39:25.474Z,76.10
2017-10-26T18:41:55.675Z,76.20
2017-10-26T18:44:24.608Z,76.10
2017-10-26T18:49:26.791Z,76.10
2017-10-26T18:51:55.713Z,76.20
2017-10-26T18:54:25.135Z,76.20
2017-10-26T18:56:58.512Z,76.20
2017-10-26T18:59:28.336Z,76.40
2017-10-26T19:01:57.830Z,76.50
2017-10-26T19:04:27.705Z,76.60
2017-10-26T19:06:57.348Z,76.70
2017-10-26T19:09:26.028Z,76.70
2017-10-26T19:11:55.465Z,76.70
2017-10-26T19:14:24.488Z,76.90
2017-10-26T19:16:58.747Z,76.80
2017-10-26T19:19:28.442Z,76.60
2017-10-26T19:21:57.340Z,76.40
2017-10-26T19:24:27.121Z,76.30
2017-10-26T19:26:57.528Z,76.20
2017-10-26T19:29:30.609Z,76.20
2017-10-26T19:31:59.489Z,76.20
2017-10-26T19:34:31.511Z,76.30
2017-10-26T19:37:01.153Z,76.20
2017-10-26T19:39:30.914Z,76.20
2017-10-26T19:42:00.603Z,76.40
2017-10-26T19:44:29.751Z,76.40
2017-10-26T19:46:58.604Z,76.60
2017-10-26T19:49:29.393Z,76.60
2017-10-26T19:51:58.275Z,76.40
2017-10-26T19:54:27.139Z,76.40
2017-10-26T19:56:56.269Z,76.20
2017-10-26T19:59:25.137Z,76.30
2017-10-26T20:01:54.797Z,76.40
2017-10-26T20:04:23.655Z,76.30
2017-10-26T20:06:54.296Z,76.20
2017-10-26T20:09:23.155Z,76.20
2017-10-26T20:11:52.794Z,76.10
2017-10-26T20:14:21.664Z,76.10
2017-10-26T20:16:51.307Z,76.30
2017-10-26T20:19:20.165Z,76.20
2017-10-26T20:21:49.516Z,76.50
2017-10-26T20:24:18.415Z,76.50
2017-10-26T20:26:47.277Z,77.20
2017-10-26T20:29:17.213Z,76.70
2017-10-26T20:31:46.081Z,76.80
2017-10-26T20:34:15.086Z,76.70
2017-10-26T20:36:43.958Z,76.60
2017-10-26T20:39:12.819Z,76.50
2017-10-26T20:41:41.463Z,76.60
2017-10-26T20:44:10.778Z,76.50
2017-10-26T20:46:40.252Z,76.50
2017-10-26T20:49:20.764Z,76.50
2017-10-26T20:51:55.951Z,76.60
2017-10-26T20:54:37.514Z,76.60
2017-10-26T20:57:12.572Z,76.80
2017-10-26T20:59:46.904Z,76.70
2017-10-26T21:02:21.144Z,76.70
2017-10-26T21:04:56.329Z,76.80
2017-10-26T21:07:31.380Z,77.00
2017-10-26T21:10:00.088Z,77.00
2017-10-26T21:12:43.660Z,77.00
2017-10-26T21:15:13.111Z,77.00
2017-10-26T21:17:41.978Z,77.00
2017-10-26T21:20:11.625Z,77.30
2017-10-26T21:22:40.503Z,77.20
2017-10-26T21:25:09.107Z,77.00
2017-10-26T21:27:37.979Z,77.10
2017-10-26T21:30:07.589Z,77.20
2017-10-26T21:32:37.259Z,77.40
2017-10-26T21:35:06.108Z,77.50
2017-10-26T21:37:35.769Z,77.60
2017-10-26T21:40:05.430Z,77.80
2017-10-26T21:42:34.314Z,77.70
2017-10-26T21:45:04.024Z,77.80
2017-10-26T21:47:33.706Z,78.00
2017-10-26T21:50:03.343Z,78.00
2017-10-26T21:52:32.210Z,78.00
2017-10-26T21:55:01.570Z,78.30
2017-10-26T21:57:30.255Z,78.30
2017-10-26T21:59:59.100Z,78.40
2017-10-26T22:02:27.991Z,78.40
2017-10-26T22:04:56.840Z,78.50
2017-10-26T22:07:25.746Z,78.70
2017-10-26T22:09:57.152Z,79.60
2017-10-26T22:12:26.049Z,79.50
2017-10-26T22:14:54.897Z,79.60
2017-10-26T22:17:23.762Z,79.80
2017-10-26T22:19:52.656Z,79.80
2017-10-26T22:22:21.411Z,80.10
2017-10-26T22:24:50.382Z,80.20
2017-10-26T22:27:19.901Z,80.30
2017-10-26T22:29:49.244Z,80.40
2017-10-26T22:32:18.414Z,80.60
2017-10-26T22:34:47.283Z,80.80
2017-10-26T22:37:19.764Z,80.90
2017-10-26T22:39:50.406Z,80.90
2017-10-26T22:42:19.566Z,80.90
2017-10-26T22:44:49.195Z,81.10
2017-10-26T22:47:18.103Z,81.10
2017-10-26T22:49:46.976Z,81.20
2017-10-26T22:52:15.905Z,81.40
2017-10-26T22:54:44.775Z,81.50
2017-10-26T22:57:13.659Z,81.80
2017-10-26T22:59:42.508Z,82.10
2017-10-26T23:02:11.373Z,82.20
2017-10-26T23:04:40.234Z,82.90
2017-10-26T23:07:09.092Z,82.50
2017-10-26T23:09:38.723Z,82.50
2017-10-26T23:12:09.591Z,82.50
2017-10-26T23:14:38.805Z,83.20
2017-10-26T23:17:10.124Z,82.50
2017-10-26T23:19:39.356Z,82.60
2017-10-26T23:22:07.887Z,83.30
2017-10-26T23:24:36.776Z,82.60
2017-10-26T23:27:05.710Z,82.70
2017-10-26T23:29:34.822Z,82.80
2017-10-26T23:32:03.708Z,82.90
2017-10-26T23:34:34.212Z,82.90
2017-10-26T23:37:03.068Z,83.00
2017-10-26T23:39:32.714Z,83.10
2017-10-26T23:42:01.568Z,83.10
2017-10-26T23:44:30.424Z,83.00
2017-10-26T23:46:59.237Z,83.10
2017-10-26T23:49:29.054Z,83.40
2017-10-26T23:51:57.915Z,83.30
2017-10-26T23:54:26.828Z,83.50
2017-10-26T23:56:56.507Z,84.00
2017-10-26T23:59:25.387Z,83.40
